sensor_id;sensor_type;location;lat;lon;timestamp;P1;durP1;ratioP1;P2;durP2;ratioP2
13753;SDS011;6948;51.216;6.778;2022-09-03T00:01:24;2.23;;;1.53;;
13753;SDS011;6948;51.216;6.778;2022-09-03T00:03:54;3.03;;;1.40;;
13753;SDS011;6948;51.216;6.778;2022-09-03T00:06:25;3.43;;;1.57;;
13753;SDS011;6948;51.216;6.778;2022-09-03T00:08:56;2.90;;;1.27;;
13753;SDS011;6948;51.216;6.778;2022-09-03T00:14:11;5.13;;;1.50;;
13753;SDS011;6948;51.216;6.778;2022-09-03T00:16:44;1.87;;;1.53;;
13753;SDS011;6948;51.216;6.778;2022-09-03T00:19:11;3.73;;;1.70;;
13753;SDS011;6948;51.216;6.778;2022-09-03T00:21:52;4.33;;;1.50;;
13753;SDS011;6948;51.216;6.778;2022-09-03T00:24:20;2.27;;;1.30;;
13753;SDS011;6948;51.216;6.778;2022-09-03T00:26:49;2.50;;;1.23;;
13753;SDS011;6948;51.216;6.778;2022-09-03T00:29:19;2.90;;;1.50;;
13753;SDS011;6948;51.216;6.778;2022-09-03T00:31:50;2.20;;;1.50;;
13753;SDS011;6948;51.216;6.778;2022-09-03T00:36:55;2.20;;;1.37;;
13753;SDS011;6948;51.216;6.778;2022-09-03T00:39:23;3.80;;;1.60;;
13753;SDS011;6948;51.216;6.778;2022-09-03T00:41:56;4.70;;;1.70;;
13753;SDS011;6948;51.216;6.778;2022-09-03T00:47:10;2.90;;;1.30;;
13753;SDS011;6948;51.216;6.778;2022-09-03T00:49:48;3.53;;;1.50;;
13753;SDS011;6948;51.216;6.778;2022-09-03T00:57:59;2.07;;;1.50;;
13753;SDS011;6948;51.216;6.778;2022-09-03T01:00:28;1.63;;;1.30;;
13753;SDS011;6948;51.216;6.778;2022-09-03T01:08:29;2.83;;;1.37;;
13753;SDS011;6948;51.216;6.778;2022-09-03T01:19:04;4.70;;;1.40;;
13753;SDS011;6948;51.216;6.778;2022-09-03T01:21:50;2.37;;;1.50;;
13753;SDS011;6948;51.216;6.778;2022-09-03T01:29:53;2.93;;;1.40;;
13753;SDS011;6948;51.216;6.778;2022-09-03T01:32:25;3.83;;;1.60;;
13753;SDS011;6948;51.216;6.778;2022-09-03T01:35:00;6.47;;;1.47;;
13753;SDS011;6948;51.216;6.778;2022-09-03T01:53:59;2.33;;;1.43;;
13753;SDS011;6948;51.216;6.778;2022-09-03T01:56:39;1.53;;;1.30;;
13753;SDS011;6948;51.216;6.778;2022-09-03T01:59:19;1.97;;;1.43;;
13753;SDS011;6948;51.216;6.778;2022-09-03T02:04:40;2.60;;;1.40;;
13753;SDS011;6948;51.216;6.778;2022-09-03T02:07:07;4.33;;;1.60;;
13753;SDS011;6948;51.216;6.778;2022-09-03T02:09:33;1.47;;;1.30;;
13753;SDS011;6948;51.216;6.778;2022-09-03T02:12:07;2.00;;;1.30;;
13753;SDS011;6948;51.216;6.778;2022-09-03T02:14:35;1.50;;;1.37;;
13753;SDS011;6948;51.216;6.778;2022-09-03T02:17:02;2.17;;;1.27;;
13753;SDS011;6948;51.216;6.778;2022-09-03T02:19:29;3.73;;;1.40;;
13753;SDS011;6948;51.216;6.778;2022-09-03T02:21:56;3.27;;;1.43;;
13753;SDS011;6948;51.216;6.778;2022-09-03T02:24:22;1.67;;;1.30;;
13753;SDS011;6948;51.216;6.778;2022-09-03T02:26:49;4.37;;;1.30;;
13753;SDS011;6948;51.216;6.778;2022-09-03T02:29:15;2.80;;;1.40;;
13753;SDS011;6948;51.216;6.778;2022-09-03T02:31:43;1.90;;;1.23;;
13753;SDS011;6948;51.216;6.778;2022-09-03T02:34:09;5.43;;;1.30;;
13753;SDS011;6948;51.216;6.778;2022-09-03T02:36:38;1.83;;;1.40;;
13753;SDS011;6948;51.216;6.778;2022-09-03T02:39:04;2.33;;;1.43;;
13753;SDS011;6948;51.216;6.778;2022-09-03T02:41:31;1.50;;;1.30;;
13753;SDS011;6948;51.216;6.778;2022-09-03T02:44:02;3.87;;;1.27;;
13753;SDS011;6948;51.216;6.778;2022-09-03T02:46:32;3.93;;;1.30;;
13753;SDS011;6948;51.216;6.778;2022-09-03T02:48:59;3.00;;;1.40;;
13753;SDS011;6948;51.216;6.778;2022-09-03T02:51:25;3.43;;;1.30;;
13753;SDS011;6948;51.216;6.778;2022-09-03T02:53:51;2.77;;;1.30;;
13753;SDS011;6948;51.216;6.778;2022-09-03T02:56:17;2.87;;;1.60;;
13753;SDS011;6948;51.216;6.778;2022-09-03T02:58:43;3.33;;;1.20;;
13753;SDS011;6948;51.216;6.778;2022-09-03T03:01:09;2.17;;;1.10;;
13753;SDS011;6948;51.216;6.778;2022-09-03T03:03:35;2.67;;;1.20;;
13753;SDS011;6948;51.216;6.778;2022-09-03T03:06:02;2.47;;;1.40;;
13753;SDS011;6948;51.216;6.778;2022-09-03T03:08:29;1.60;;;1.30;;
13753;SDS011;6948;51.216;6.778;2022-09-03T03:10:57;3.20;;;1.43;;
13753;SDS011;6948;51.216;6.778;2022-09-03T03:13:25;2.47;;;1.83;;
13753;SDS011;6948;51.216;6.778;2022-09-03T03:15:54;6.17;;;2.80;;
13753;SDS011;6948;51.216;6.778;2022-09-03T03:18:21;3.83;;;1.40;;
13753;SDS011;6948;51.216;6.778;2022-09-03T03:20:47;4.40;;;1.60;;
13753;SDS011;6948;51.216;6.778;2022-09-03T03:23:13;2.43;;;1.20;;
13753;SDS011;6948;51.216;6.778;2022-09-03T03:25:39;1.97;;;1.70;;
13753;SDS011;6948;51.216;6.778;2022-09-03T03:28:05;2.97;;;1.40;;
13753;SDS011;6948;51.216;6.778;2022-09-03T03:30:31;2.90;;;1.40;;
13753;SDS011;6948;51.216;6.778;2022-09-03T03:32:58;2.27;;;1.40;;
13753;SDS011;6948;51.216;6.778;2022-09-03T03:35:24;2.60;;;1.40;;
13753;SDS011;6948;51.216;6.778;2022-09-03T03:37:50;3.33;;;1.40;;
13753;SDS011;6948;51.216;6.778;2022-09-03T03:40:16;2.60;;;1.40;;
13753;SDS011;6948;51.216;6.778;2022-09-03T03:42:44;2.80;;;1.50;;
13753;SDS011;6948;51.216;6.778;2022-09-03T03:45:10;3.93;;;1.47;;
13753;SDS011;6948;51.216;6.778;2022-09-03T03:47:36;2.87;;;1.50;;
13753;SDS011;6948;51.216;6.778;2022-09-03T03:50:03;4.43;;;1.60;;
13753;SDS011;6948;51.216;6.778;2022-09-03T03:52:29;3.20;;;1.40;;
13753;SDS011;6948;51.216;6.778;2022-09-03T03:54:55;5.17;;;1.70;;
13753;SDS011;6948;51.216;6.778;2022-09-03T03:57:21;2.70;;;1.40;;
13753;SDS011;6948;51.216;6.778;2022-09-03T03:59:47;2.63;;;1.50;;
13753;SDS011;6948;51.216;6.778;2022-09-03T04:02:14;3.03;;;1.43;;
13753;SDS011;6948;51.216;6.778;2022-09-03T04:04:40;3.20;;;1.43;;
13753;SDS011;6948;51.216;6.778;2022-09-03T04:07:06;3.13;;;1.50;;
13753;SDS011;6948;51.216;6.778;2022-09-03T04:09:32;1.97;;;1.40;;
13753;SDS011;6948;51.216;6.778;2022-09-03T04:11:59;2.30;;;1.50;;
13753;SDS011;6948;51.216;6.778;2022-09-03T04:14:25;6.23;;;1.60;;
13753;SDS011;6948;51.216;6.778;2022-09-03T04:16:52;2.00;;;1.37;;
13753;SDS011;6948;51.216;6.778;2022-09-03T04:19:18;2.57;;;1.50;;
13753;SDS011;6948;51.216;6.778;2022-09-03T04:21:44;5.07;;;1.40;;
13753;SDS011;6948;51.216;6.778;2022-09-03T04:24:10;6.80;;;1.40;;
13753;SDS011;6948;51.216;6.778;2022-09-03T04:26:37;3.37;;;1.50;;
13753;SDS011;6948;51.216;6.778;2022-09-03T04:29:05;2.10;;;1.43;;
13753;SDS011;6948;51.216;6.778;2022-09-03T04:31:32;1.30;;;1.20;;
13753;SDS011;6948;51.216;6.778;2022-09-03T04:33:58;2.13;;;1.30;;
13753;SDS011;6948;51.216;6.778;2022-09-03T04:36:25;2.70;;;1.50;;
13753;SDS011;6948;51.216;6.778;2022-09-03T04:38:52;2.20;;;1.50;;
13753;SDS011;6948;51.216;6.778;2022-09-03T04:41:20;4.13;;;1.27;;
13753;SDS011;6948;51.216;6.778;2022-09-03T04:43:47;1.93;;;1.30;;
13753;SDS011;6948;51.216;6.778;2022-09-03T04:46:15;3.50;;;1.27;;
13753;SDS011;6948;51.216;6.778;2022-09-03T04:48:41;2.47;;;1.30;;
13753;SDS011;6948;51.216;6.778;2022-09-03T04:51:10;4.13;;;1.50;;
13753;SDS011;6948;51.216;6.778;2022-09-03T04:53:38;2.27;;;1.37;;
13753;SDS011;6948;51.216;6.778;2022-09-03T04:56:13;1.97;;;1.33;;
13753;SDS011;6948;51.216;6.778;2022-09-03T04:58:40;2.17;;;1.43;;
13753;SDS011;6948;51.216;6.778;2022-09-03T05:01:09;2.10;;;1.30;;
13753;SDS011;6948;51.216;6.778;2022-09-03T05:03:36;4.20;;;1.47;;
13753;SDS011;6948;51.216;6.778;2022-09-03T05:06:02;2.37;;;1.20;;
13753;SDS011;6948;51.216;6.778;2022-09-03T05:08:29;1.40;;;1.30;;
13753;SDS011;6948;51.216;6.778;2022-09-03T05:10:57;3.80;;;1.37;;
13753;SDS011;6948;51.216;6.778;2022-09-03T05:13:24;3.10;;;1.20;;
13753;SDS011;6948;51.216;6.778;2022-09-03T05:15:50;1.70;;;1.20;;
13753;SDS011;6948;51.216;6.778;2022-09-03T05:18:16;3.27;;;1.40;;
13753;SDS011;6948;51.216;6.778;2022-09-03T05:20:42;4.53;;;1.40;;
13753;SDS011;6948;51.216;6.778;2022-09-03T05:23:08;2.53;;;1.10;;
13753;SDS011;6948;51.216;6.778;2022-09-03T05:25:34;2.93;;;1.43;;
13753;SDS011;6948;51.216;6.778;2022-09-03T05:28:02;1.80;;;1.30;;
13753;SDS011;6948;51.216;6.778;2022-09-03T05:30:29;4.03;;;2.07;;
13753;SDS011;6948;51.216;6.778;2022-09-03T05:32:55;4.80;;;1.60;;
13753;SDS011;6948;51.216;6.778;2022-09-03T05:35:21;3.03;;;2.00;;
13753;SDS011;6948;51.216;6.778;2022-09-03T05:37:47;3.47;;;1.50;;
13753;SDS011;6948;51.216;6.778;2022-09-03T05:40:13;2.13;;;1.60;;
13753;SDS011;6948;51.216;6.778;2022-09-03T05:42:39;4.37;;;1.30;;
13753;SDS011;6948;51.216;6.778;2022-09-03T05:45:07;2.93;;;1.60;;
13753;SDS011;6948;51.216;6.778;2022-09-03T05:47:35;2.43;;;1.30;;
13753;SDS011;6948;51.216;6.778;2022-09-03T05:50:01;4.07;;;1.30;;
13753;SDS011;6948;51.216;6.778;2022-09-03T05:52:28;5.70;;;1.80;;
13753;SDS011;6948;51.216;6.778;2022-09-03T05:54:54;2.97;;;1.40;;
13753;SDS011;6948;51.216;6.778;2022-09-03T05:57:20;5.27;;;2.03;;
13753;SDS011;6948;51.216;6.778;2022-09-03T05:59:46;2.80;;;1.70;;
13753;SDS011;6948;51.216;6.778;2022-09-03T06:02:12;4.30;;;1.53;;
13753;SDS011;6948;51.216;6.778;2022-09-03T06:04:38;3.27;;;2.00;;
13753;SDS011;6948;51.216;6.778;2022-09-03T06:07:04;4.00;;;1.63;;
13753;SDS011;6948;51.216;6.778;2022-09-03T06:09:30;6.43;;;1.53;;
13753;SDS011;6948;51.216;6.778;2022-09-03T06:11:56;3.43;;;1.40;;
13753;SDS011;6948;51.216;6.778;2022-09-03T06:14:22;3.73;;;1.47;;
13753;SDS011;6948;51.216;6.778;2022-09-03T06:16:49;2.90;;;1.20;;
13753;SDS011;6948;51.216;6.778;2022-09-03T06:19:16;2.17;;;1.30;;
13753;SDS011;6948;51.216;6.778;2022-09-03T06:21:43;4.97;;;1.50;;
13753;SDS011;6948;51.216;6.778;2022-09-03T06:24:10;1.70;;;1.30;;
13753;SDS011;6948;51.216;6.778;2022-09-03T06:26:37;2.30;;;1.80;;
13753;SDS011;6948;51.216;6.778;2022-09-03T06:29:03;3.70;;;1.50;;
13753;SDS011;6948;51.216;6.778;2022-09-03T06:31:29;3.40;;;1.73;;
13753;SDS011;6948;51.216;6.778;2022-09-03T06:33:56;3.17;;;1.57;;
13753;SDS011;6948;51.216;6.778;2022-09-03T06:36:22;4.63;;;1.40;;
13753;SDS011;6948;51.216;6.778;2022-09-03T06:38:51;1.77;;;1.30;;
13753;SDS011;6948;51.216;6.778;2022-09-03T06:41:18;3.50;;;2.00;;
13753;SDS011;6948;51.216;6.778;2022-09-03T06:43:45;2.00;;;1.40;;
13753;SDS011;6948;51.216;6.778;2022-09-03T06:46:12;4.10;;;1.90;;
13753;SDS011;6948;51.216;6.778;2022-09-03T06:48:39;2.70;;;1.43;;
13753;SDS011;6948;51.216;6.778;2022-09-03T06:51:06;1.97;;;1.50;;
13753;SDS011;6948;51.216;6.778;2022-09-03T06:53:33;3.13;;;1.70;;
13753;SDS011;6948;51.216;6.778;2022-09-03T06:56:01;3.63;;;2.93;;
13753;SDS011;6948;51.216;6.778;2022-09-03T06:58:28;7.17;;;4.40;;
13753;SDS011;6948;51.216;6.778;2022-09-03T07:00:59;3.23;;;2.00;;
13753;SDS011;6948;51.216;6.778;2022-09-03T07:03:26;2.20;;;1.37;;
13753;SDS011;6948;51.216;6.778;2022-09-03T07:05:52;2.40;;;1.20;;
13753;SDS011;6948;51.216;6.778;2022-09-03T07:08:18;6.37;;;1.70;;
13753;SDS011;6948;51.216;6.778;2022-09-03T07:10:44;3.27;;;1.60;;
13753;SDS011;6948;51.216;6.778;2022-09-03T07:13:11;3.07;;;1.60;;
13753;SDS011;6948;51.216;6.778;2022-09-03T07:15:37;2.67;;;1.23;;
13753;SDS011;6948;51.216;6.778;2022-09-03T07:18:04;2.33;;;1.50;;
13753;SDS011;6948;51.216;6.778;2022-09-03T07:20:30;5.00;;;3.60;;
13753;SDS011;6948;51.216;6.778;2022-09-03T07:22:56;2.87;;;1.90;;
13753;SDS011;6948;51.216;6.778;2022-09-03T07:25:23;2.23;;;1.50;;
13753;SDS011;6948;51.216;6.778;2022-09-03T07:27:51;3.10;;;1.60;;
13753;SDS011;6948;51.216;6.778;2022-09-03T07:30:17;2.77;;;1.33;;
13753;SDS011;6948;51.216;6.778;2022-09-03T07:32:45;7.07;;;1.43;;
13753;SDS011;6948;51.216;6.778;2022-09-03T07:35:11;4.53;;;1.47;;
13753;SDS011;6948;51.216;6.778;2022-09-03T07:37:39;3.60;;;1.50;;
13753;SDS011;6948;51.216;6.778;2022-09-03T07:40:06;3.67;;;1.67;;
13753;SDS011;6948;51.216;6.778;2022-09-03T07:42:32;3.80;;;1.67;;
13753;SDS011;6948;51.216;6.778;2022-09-03T07:45:00;3.93;;;1.60;;
13753;SDS011;6948;51.216;6.778;2022-09-03T07:47:29;4.83;;;1.80;;
13753;SDS011;6948;51.216;6.778;2022-09-03T07:49:56;2.63;;;1.83;;
13753;SDS011;6948;51.216;6.778;2022-09-03T07:52:22;7.57;;;1.80;;
13753;SDS011;6948;51.216;6.778;2022-09-03T07:54:48;5.57;;;1.90;;
13753;SDS011;6948;51.216;6.778;2022-09-03T07:57:14;5.53;;;1.90;;
13753;SDS011;6948;51.216;6.778;2022-09-03T07:59:40;4.73;;;1.93;;
13753;SDS011;6948;51.216;6.778;2022-09-03T08:02:06;4.10;;;3.23;;
13753;SDS011;6948;51.216;6.778;2022-09-03T08:04:32;2.40;;;1.60;;
13753;SDS011;6948;51.216;6.778;2022-09-03T08:07:00;2.43;;;1.40;;
13753;SDS011;6948;51.216;6.778;2022-09-03T08:09:27;3.60;;;1.60;;
13753;SDS011;6948;51.216;6.778;2022-09-03T08:11:53;2.23;;;1.53;;
13753;SDS011;6948;51.216;6.778;2022-09-03T08:14:19;2.63;;;1.90;;
13753;SDS011;6948;51.216;6.778;2022-09-03T08:16:46;4.17;;;1.80;;
13753;SDS011;6948;51.216;6.778;2022-09-03T08:19:12;3.60;;;1.43;;
13753;SDS011;6948;51.216;6.778;2022-09-03T08:21:39;2.77;;;1.60;;
13753;SDS011;6948;51.216;6.778;2022-09-03T08:24:06;2.87;;;1.70;;
13753;SDS011;6948;51.216;6.778;2022-09-03T08:26:33;4.87;;;1.70;;
13753;SDS011;6948;51.216;6.778;2022-09-03T08:29:00;3.77;;;1.73;;
13753;SDS011;6948;51.216;6.778;2022-09-03T08:31:27;3.33;;;1.40;;
13753;SDS011;6948;51.216;6.778;2022-09-03T08:33:53;1.83;;;1.40;;
13753;SDS011;6948;51.216;6.778;2022-09-03T08:36:24;1.90;;;1.33;;
13753;SDS011;6948;51.216;6.778;2022-09-03T08:38:51;4.60;;;1.53;;
13753;SDS011;6948;51.216;6.778;2022-09-03T08:41:21;3.37;;;1.50;;
13753;SDS011;6948;51.216;6.778;2022-09-03T08:46:40;3.40;;;1.23;;
13753;SDS011;6948;51.216;6.778;2022-09-03T08:49:08;3.60;;;1.47;;
13753;SDS011;6948;51.216;6.778;2022-09-03T08:51:37;5.30;;;1.70;;
13753;SDS011;6948;51.216;6.778;2022-09-03T08:54:04;2.20;;;1.63;;
13753;SDS011;6948;51.216;6.778;2022-09-03T08:56:32;4.13;;;1.50;;
13753;SDS011;6948;51.216;6.778;2022-09-03T08:59:01;3.87;;;1.80;;
13753;SDS011;6948;51.216;6.778;2022-09-03T09:09:46;4.57;;;1.60;;
13753;SDS011;6948;51.216;6.778;2022-09-03T09:15:10;2.80;;;1.93;;
13753;SDS011;6948;51.216;6.778;2022-09-03T09:23:06;2.57;;;1.50;;
13753;SDS011;6948;51.216;6.778;2022-09-03T09:25:33;2.80;;;1.60;;
13753;SDS011;6948;51.216;6.778;2022-09-03T09:28:20;2.13;;;1.40;;
13753;SDS011;6948;51.216;6.778;2022-09-03T09:30:47;2.67;;;1.80;;
13753;SDS011;6948;51.216;6.778;2022-09-03T09:33:14;3.00;;;1.60;;
13753;SDS011;6948;51.216;6.778;2022-09-03T09:35:41;1.83;;;1.53;;
13753;SDS011;6948;51.216;6.778;2022-09-03T09:38:07;3.90;;;1.80;;
13753;SDS011;6948;51.216;6.778;2022-09-03T09:40:35;2.43;;;1.50;;
13753;SDS011;6948;51.216;6.778;2022-09-03T09:45:40;2.40;;;1.50;;
13753;SDS011;6948;51.216;6.778;2022-09-03T09:48:08;4.10;;;1.50;;
13753;SDS011;6948;51.216;6.778;2022-09-03T09:50:37;4.27;;;1.70;;
13753;SDS011;6948;51.216;6.778;2022-09-03T09:53:06;2.07;;;1.57;;
13753;SDS011;6948;51.216;6.778;2022-09-03T09:55:55;3.67;;;2.00;;
13753;SDS011;6948;51.216;6.778;2022-09-03T09:58:23;3.23;;;1.70;;
13753;SDS011;6948;51.216;6.778;2022-09-03T10:03:38;2.90;;;1.60;;
13753;SDS011;6948;51.216;6.778;2022-09-03T10:06:06;1.90;;;1.60;;
13753;SDS011;6948;51.216;6.778;2022-09-03T10:09:10;2.37;;;1.70;;
13753;SDS011;6948;51.216;6.778;2022-09-03T10:11:37;2.57;;;1.60;;
13753;SDS011;6948;51.216;6.778;2022-09-03T10:14:04;5.73;;;2.17;;
13753;SDS011;6948;51.216;6.778;2022-09-03T10:16:34;3.20;;;1.80;;
13753;SDS011;6948;51.216;6.778;2022-09-03T10:19:04;6.33;;;1.60;;
13753;SDS011;6948;51.216;6.778;2022-09-03T10:24:33;3.00;;;1.87;;
13753;SDS011;6948;51.216;6.778;2022-09-03T10:27:05;2.83;;;1.60;;
13753;SDS011;6948;51.216;6.778;2022-09-03T10:29:33;4.03;;;1.77;;
13753;SDS011;6948;51.216;6.778;2022-09-03T10:32:06;2.33;;;1.70;;
13753;SDS011;6948;51.216;6.778;2022-09-03T10:34:49;3.70;;;1.70;;
13753;SDS011;6948;51.216;6.778;2022-09-03T10:37:39;4.63;;;2.10;;
13753;SDS011;6948;51.216;6.778;2022-09-03T10:45:34;3.43;;;1.77;;
13753;SDS011;6948;51.216;6.778;2022-09-03T10:50:54;3.10;;;1.70;;
13753;SDS011;6948;51.216;6.778;2022-09-03T10:53:33;4.70;;;2.10;;
13753;SDS011;6948;51.216;6.778;2022-09-03T11:06:57;4.00;;;1.60;;
13753;SDS011;6948;51.216;6.778;2022-09-03T11:09:29;2.40;;;1.70;;
13753;SDS011;6948;51.216;6.778;2022-09-03T11:11:58;4.20;;;1.77;;
13753;SDS011;6948;51.216;6.778;2022-09-03T11:14:31;2.50;;;1.70;;
13753;SDS011;6948;51.216;6.778;2022-09-03T11:17:01;3.50;;;1.70;;
13753;SDS011;6948;51.216;6.778;2022-09-03T11:19:32;2.87;;;1.83;;
13753;SDS011;6948;51.216;6.778;2022-09-03T11:21:59;3.70;;;1.70;;
13753;SDS011;6948;51.216;6.778;2022-09-03T11:24:25;2.57;;;1.80;;
13753;SDS011;6948;51.216;6.778;2022-09-03T11:27:06;3.10;;;1.90;;
13753;SDS011;6948;51.216;6.778;2022-09-03T11:29:40;3.20;;;1.70;;
13753;SDS011;6948;51.216;6.778;2022-09-03T11:32:08;2.53;;;1.67;;
13753;SDS011;6948;51.216;6.778;2022-09-03T11:34:45;3.73;;;1.70;;
13753;SDS011;6948;51.216;6.778;2022-09-03T11:37:15;4.23;;;2.37;;
13753;SDS011;6948;51.216;6.778;2022-09-03T11:39:43;3.83;;;1.80;;
13753;SDS011;6948;51.216;6.778;2022-09-03T11:42:11;3.50;;;2.00;;
13753;SDS011;6948;51.216;6.778;2022-09-03T11:44:40;3.70;;;2.00;;
13753;SDS011;6948;51.216;6.778;2022-09-03T11:47:22;2.67;;;1.90;;
13753;SDS011;6948;51.216;6.778;2022-09-03T11:49:50;2.97;;;2.10;;
13753;SDS011;6948;51.216;6.778;2022-09-03T11:52:31;5.60;;;2.10;;
13753;SDS011;6948;51.216;6.778;2022-09-03T11:55:04;3.07;;;1.80;;
13753;SDS011;6948;51.216;6.778;2022-09-03T11:57:30;2.13;;;1.93;;
13753;SDS011;6948;51.216;6.778;2022-09-03T12:00:14;2.60;;;2.10;;
13753;SDS011;6948;51.216;6.778;2022-09-03T12:02:48;4.90;;;2.00;;
13753;SDS011;6948;51.216;6.778;2022-09-03T12:05:17;4.20;;;2.10;;
13753;SDS011;6948;51.216;6.778;2022-09-03T12:10:37;5.43;;;1.97;;
13753;SDS011;6948;51.216;6.778;2022-09-03T12:13:08;4.27;;;2.10;;
13753;SDS011;6948;51.216;6.778;2022-09-03T12:18:22;3.07;;;1.80;;
13753;SDS011;6948;51.216;6.778;2022-09-03T12:23:31;5.03;;;2.30;;
13753;SDS011;6948;51.216;6.778;2022-09-03T12:26:02;4.27;;;2.37;;
13753;SDS011;6948;51.216;6.778;2022-09-03T12:28:29;5.57;;;2.30;;
13753;SDS011;6948;51.216;6.778;2022-09-03T12:31:04;2.07;;;1.87;;
13753;SDS011;6948;51.216;6.778;2022-09-03T12:33:32;2.63;;;2.10;;
13753;SDS011;6948;51.216;6.778;2022-09-03T12:36:00;2.03;;;1.87;;
13753;SDS011;6948;51.216;6.778;2022-09-03T12:38:27;3.08;;;2.05;;
13753;SDS011;6948;51.216;6.778;2022-09-03T12:40:56;5.35;;;2.03;;
13753;SDS011;6948;51.216;6.778;2022-09-03T12:43:26;3.90;;;1.90;;
13753;SDS011;6948;51.216;6.778;2022-09-03T12:45:52;2.75;;;2.20;;
13753;SDS011;6948;51.216;6.778;2022-09-03T12:48:19;3.97;;;2.10;;
13753;SDS011;6948;51.216;6.778;2022-09-03T12:50:46;4.40;;;2.05;;
13753;SDS011;6948;51.216;6.778;2022-09-03T12:53:13;3.47;;;2.08;;
13753;SDS011;6948;51.216;6.778;2022-09-03T12:58:22;6.20;;;2.40;;
13753;SDS011;6948;51.216;6.778;2022-09-03T13:03:43;4.70;;;2.10;;
13753;SDS011;6948;51.216;6.778;2022-09-03T13:06:12;3.92;;;2.22;;
13753;SDS011;6948;51.216;6.778;2022-09-03T13:08:43;2.88;;;2.47;;
13753;SDS011;6948;51.216;6.778;2022-09-03T13:11:13;5.35;;;2.45;;
13753;SDS011;6948;51.216;6.778;2022-09-03T13:13:47;3.67;;;2.28;;
13753;SDS011;6948;51.216;6.778;2022-09-03T13:19:09;2.70;;;2.10;;
13753;SDS011;6948;51.216;6.778;2022-09-03T13:27:16;3.45;;;2.50;;
13753;SDS011;6948;51.216;6.778;2022-09-03T13:35:19;3.58;;;2.28;;
13753;SDS011;6948;51.216;6.778;2022-09-03T13:37:51;4.80;;;2.20;;
13753;SDS011;6948;51.216;6.778;2022-09-03T13:40:23;3.63;;;2.33;;
13753;SDS011;6948;51.216;6.778;2022-09-03T13:42:52;2.60;;;2.03;;
13753;SDS011;6948;51.216;6.778;2022-09-03T13:48:07;2.70;;;2.50;;
13753;SDS011;6948;51.216;6.778;2022-09-03T13:59:05;5.68;;;2.30;;
13753;SDS011;6948;51.216;6.778;2022-09-03T14:01:44;2.22;;;2.03;;
13753;SDS011;6948;51.216;6.778;2022-09-03T14:04:20;2.58;;;2.25;;
13753;SDS011;6948;51.216;6.778;2022-09-03T14:06:50;2.30;;;2.10;;
13753;SDS011;6948;51.216;6.778;2022-09-03T14:09:24;5.20;;;2.33;;
13753;SDS011;6948;51.216;6.778;2022-09-03T14:17:36;3.17;;;2.13;;
13753;SDS011;6948;51.216;6.778;2022-09-03T14:20:07;3.78;;;2.22;;
13753;SDS011;6948;51.216;6.778;2022-09-03T14:25:22;4.70;;;2.70;;
13753;SDS011;6948;51.216;6.778;2022-09-03T14:27:49;4.00;;;2.22;;
13753;SDS011;6948;51.216;6.778;2022-09-03T14:30:29;3.78;;;2.22;;
13753;SDS011;6948;51.216;6.778;2022-09-03T14:33:16;2.72;;;2.30;;
13753;SDS011;6948;51.216;6.778;2022-09-03T14:38:33;3.78;;;1.80;;
13753;SDS011;6948;51.216;6.778;2022-09-03T14:41:04;3.17;;;2.35;;
13753;SDS011;6948;51.216;6.778;2022-09-03T14:51:48;3.05;;;2.20;;
13753;SDS011;6948;51.216;6.778;2022-09-03T14:54:33;2.63;;;2.15;;
13753;SDS011;6948;51.216;6.778;2022-09-03T15:02:34;3.97;;;2.22;;
13753;SDS011;6948;51.216;6.778;2022-09-03T15:05:10;3.08;;;2.00;;
13753;SDS011;6948;51.216;6.778;2022-09-03T15:07:41;3.45;;;2.10;;
13753;SDS011;6948;51.216;6.778;2022-09-03T15:10:15;4.30;;;1.75;;
13753;SDS011;6948;51.216;6.778;2022-09-03T15:12:51;2.65;;;2.17;;
13753;SDS011;6948;51.216;6.778;2022-09-03T15:15:18;5.57;;;2.70;;
13753;SDS011;6948;51.216;6.778;2022-09-03T15:17:49;3.88;;;2.03;;
13753;SDS011;6948;51.216;6.778;2022-09-03T15:20:21;3.58;;;1.80;;
13753;SDS011;6948;51.216;6.778;2022-09-03T15:28:24;4.00;;;1.90;;
13753;SDS011;6948;51.216;6.778;2022-09-03T15:31:00;3.60;;;1.83;;
13753;SDS011;6948;51.216;6.778;2022-09-03T15:36:14;2.67;;;1.98;;
13753;SDS011;6948;51.216;6.778;2022-09-03T15:38:47;3.10;;;1.88;;
13753;SDS011;6948;51.216;6.778;2022-09-03T15:41:27;3.17;;;1.98;;
13753;SDS011;6948;51.216;6.778;2022-09-03T15:43:57;2.45;;;2.00;;
13753;SDS011;6948;51.216;6.778;2022-09-03T15:49:08;3.92;;;2.53;;
13753;SDS011;6948;51.216;6.778;2022-09-03T15:51:46;2.38;;;2.17;;
13753;SDS011;6948;51.216;6.778;2022-09-03T15:54:16;3.17;;;2.15;;
13753;SDS011;6948;51.216;6.778;2022-09-03T15:56:51;5.93;;;2.20;;
13753;SDS011;6948;51.216;6.778;2022-09-03T16:02:07;3.15;;;1.80;;
13753;SDS011;6948;51.216;6.778;2022-09-03T16:07:17;3.33;;;2.42;;
13753;SDS011;6948;51.216;6.778;2022-09-03T16:12:44;5.03;;;2.20;;
13753;SDS011;6948;51.216;6.778;2022-09-03T16:15:14;3.50;;;2.40;;
13753;SDS011;6948;51.216;6.778;2022-09-03T16:20:32;2.97;;;2.67;;
13753;SDS011;6948;51.216;6.778;2022-09-03T16:23:00;3.40;;;2.70;;
13753;SDS011;6948;51.216;6.778;2022-09-03T16:25:30;2.78;;;2.30;;
13753;SDS011;6948;51.216;6.778;2022-09-03T16:28:03;3.13;;;2.60;;
13753;SDS011;6948;51.216;6.778;2022-09-03T16:38:48;3.30;;;2.42;;
13753;SDS011;6948;51.216;6.778;2022-09-03T16:44:05;4.10;;;2.50;;
13753;SDS011;6948;51.216;6.778;2022-09-03T16:46:39;3.85;;;2.40;;
13753;SDS011;6948;51.216;6.778;2022-09-03T16:49:13;3.38;;;2.42;;
13753;SDS011;6948;51.216;6.778;2022-09-03T16:51:55;3.67;;;2.58;;
13753;SDS011;6948;51.216;6.778;2022-09-03T16:57:21;5.45;;;2.50;;
13753;SDS011;6948;51.216;6.778;2022-09-03T17:00:06;3.00;;;2.28;;
13753;SDS011;6948;51.216;6.778;2022-09-03T17:05:17;4.47;;;2.90;;
13753;SDS011;6948;51.216;6.778;2022-09-03T17:10:29;4.90;;;2.53;;
13753;SDS011;6948;51.216;6.778;2022-09-03T17:13:06;5.13;;;2.60;;
13753;SDS011;6948;51.216;6.778;2022-09-03T17:26:19;5.10;;;2.42;;
13753;SDS011;6948;51.216;6.778;2022-09-03T17:31:37;3.13;;;2.80;;
13753;SDS011;6948;51.216;6.778;2022-09-03T17:34:18;3.75;;;2.97;;
13753;SDS011;6948;51.216;6.778;2022-09-03T17:36:53;4.95;;;3.42;;
13753;SDS011;6948;51.216;6.778;2022-09-03T17:49:58;2.53;;;2.33;;
13753;SDS011;6948;51.216;6.778;2022-09-03T17:52:38;3.20;;;2.00;;
13753;SDS011;6948;51.216;6.778;2022-09-03T17:55:11;6.90;;;2.72;;
13753;SDS011;6948;51.216;6.778;2022-09-03T17:57:38;5.13;;;2.40;;
13753;SDS011;6948;51.216;6.778;2022-09-03T18:00:09;3.28;;;2.40;;
13753;SDS011;6948;51.216;6.778;2022-09-03T18:02:41;4.07;;;2.00;;
13753;SDS011;6948;51.216;6.778;2022-09-03T18:10:24;4.30;;;2.20;;
13753;SDS011;6948;51.216;6.778;2022-09-03T18:13:03;2.90;;;2.28;;
13753;SDS011;6948;51.216;6.778;2022-09-03T18:15:34;3.30;;;2.20;;
13753;SDS011;6948;51.216;6.778;2022-09-03T18:18:03;3.17;;;2.07;;
13753;SDS011;6948;51.216;6.778;2022-09-03T18:20:31;4.07;;;2.40;;
13753;SDS011;6948;51.216;6.778;2022-09-03T18:23:27;3.00;;;2.20;;
13753;SDS011;6948;51.216;6.778;2022-09-03T18:26:15;2.70;;;2.10;;
13753;SDS011;6948;51.216;6.778;2022-09-03T18:29:10;2.70;;;2.20;;
13753;SDS011;6948;51.216;6.778;2022-09-03T18:31:56;2.90;;;2.40;;
13753;SDS011;6948;51.216;6.778;2022-09-03T18:34:42;3.60;;;2.03;;
13753;SDS011;6948;51.216;6.778;2022-09-03T18:37:30;4.90;;;2.23;;
13753;SDS011;6948;51.216;6.778;2022-09-03T18:40:18;3.20;;;2.30;;
13753;SDS011;6948;51.216;6.778;2022-09-03T18:45:48;3.63;;;2.70;;
13753;SDS011;6948;51.216;6.778;2022-09-03T18:48:54;5.90;;;2.90;;
13753;SDS011;6948;51.216;6.778;2022-09-03T18:57:30;14.10;;;5.20;;
13753;SDS011;6948;51.216;6.778;2022-09-03T19:00:19;5.90;;;2.93;;
13753;SDS011;6948;51.216;6.778;2022-09-03T19:03:24;5.07;;;2.40;;
13753;SDS011;6948;51.216;6.778;2022-09-03T19:06:13;2.87;;;2.57;;
13753;SDS011;6948;51.216;6.778;2022-09-03T19:11:45;4.50;;;3.80;;
13753;SDS011;6948;51.216;6.778;2022-09-03T19:14:52;4.73;;;2.90;;
13753;SDS011;6948;51.216;6.778;2022-09-03T19:23:54;4.03;;;2.80;;
13753;SDS011;6948;51.216;6.778;2022-09-03T19:26:46;6.20;;;3.20;;
13753;SDS011;6948;51.216;6.778;2022-09-03T19:29:37;5.17;;;2.70;;
13753;SDS011;6948;51.216;6.778;2022-09-03T19:32:34;5.73;;;3.00;;